メインページ
METAR-TAF:

METAR-TAF

空港 :

ウラジオストク, ロシア

ウラジオストク国際空港

緯度: 43-07N, 経度: 131-56E, 海抜: 184m

現時点の気象観測

当レポートは34分前の16:00(UTC)に作成
無風
気温 13°C
湿度 100%
気圧 1007 hPa
視程: 4900m

METAR: UHWW 221600Z 00000MPS 4900 BR NSC 13/13 Q1007 R25L/0///70 NOSIG RMK QFE754

時間: 02:34 (16:34 UTC)

予報

当レポートは24分前の16:10(UTC)に作成
予報は22日の 16時(UTC)から 23日の 15時(UTC)まで有効
の風 6kt
視程: 0300m
高度200ftの
22日の 21時(UTC)から 22日の 23時(UTC)まで徐々に
視程: 2100m
高度700ftの雲は散在している
23日の 0200時(UTC)から
西/南西の風 6kt
視程10km以上
高度3000ftの雲は散在している
23日の 02時(UTC)から 23日の 11時(UTC)まで一時的に
視程: 5000m
高度2000ftの千切れ雲あり, 積乱雲.
弱いにわか雨
23日の 11時(UTC)から 23日の 13時(UTC)まで徐々に
東/南東の風 6kt

TAF: UHWW 221610Z 2216/2315 36003MPS 0300 FG VV002 BECMG 2221/2223 2100 BR SCT007 FM230200 24003MPS 9999 SCT030 TEMPO 2302/2311 5000 -SHRA BKN020CB BECMG 2311/2313 12003MPS

4,000以上の空港の気象観測と天気予報(METAR報とTAF報)

利用可能な観測所は地図上に黄色い丸と赤い丸で示す。

丸の上にカーソルを重ねると観測所名を参照できる。

次にクリックすると気象観測と天気予報を参照できる。

マップの切り替え:黒色「×」印の緑ボタンをクリックして拡大、「-」印の緑ボタンをクリックして縮小、緑色の三角印をクリックして隣りの地図に切り替え


METAR-TAF: